03:57
Airports
History
Links
Donate
Help keep this website running!
PayPal
Bitcoin
Information on this page is community maintained and may be outdated or inaccurate and is intended for reference only or PC simulator navigating!
Always use approved charts for navigating.
CYEV
INUVIK MIKE ZUBKO
INUVIK MIKE ZUBKO (CYEV)
Inuvik, Northwest Territories, Canada
(U)
Lat/Lng:68° 18' 13.65" N / 133° 28' 59.4" W
68.303792 / -133.483167
Elevation:224'ft 68mMSL
ID / ICAO:CYEV
Runways:1
Longest:(06-24) 1,818.6m 5,967ft Asphalt
Distance To
Airport ID:
Airport Radio Frequencies
ATIS: 128.5
MANDATORY FREQ: 122.3
Nearby VORs <50NM
Nearby NDBs
METARUpdated 03-25-17 03:21 GMT
Altimeter: 30.09
Visibility: 6.0 statute miles
Wind: 7 knots (290°)
Temp: -16°c 3°f
Humidity: 84.5%

METAR: CYEV 250321Z 29007KT 6SM -SN SCT013 BKN120 BKN240 M16/M18 A3009 RMK SC4AC1CI1 VIS SE-SW 3 SLP201

(Powered by phpweather)
Runway 06 / 24
Dimensions:1818.6 x 45.7m 5967' x 150'ft
Surface:Asphalt
Edge Lights:High intensity
Runway 06 [A]Runway 24 [B]
Heading:085°TH 265°TH
Lat:
Lng:
68° 18' 11.5"N
133° 30' 19"W
68° 18' 15.8"N
133° 27' 39.8"W
ALS:SSALRODALS
Google Map
Nearby Airports
4 Aklavik 39.2 NM
CYKD W 261°
4 FORT MCPHERSON 71.5 NM
CZFM (WX) SSW 210°
4 TUKTOYAKTUK 78.9 NM
CYUB (WX) N
(C) Midway 87.5 NM
CBA4 SSW 212°
4 Eagle Plains 149.8 NM
AJ2 SSW 213°
4 Old Crow 172.5 NM
CYOC (WX) WSW 252°
4 FORT GOOD HOPE 192.1 NM
CYGH SE 137°
VFR Chart
Flight Planning at SkyVector.com